createdAt,value
2016-11-21T00:00:17.767Z,0
2016-11-21T00:01:18.717Z,0
2016-11-21T00:02:17.795Z,0
2016-11-21T00:03:17.816Z,0
2016-11-21T00:04:17.510Z,0
2016-11-21T00:05:18.152Z,0
2016-11-21T00:06:18.170Z,0
2016-11-21T00:07:17.877Z,0
2016-11-21T00:08:17.888Z,0
2016-11-21T00:09:17.908Z,0
2016-11-21T00:10:17.923Z,0
2016-11-21T00:11:17.939Z,0
2016-11-21T00:12:18.590Z,0
2016-11-21T00:13:17.657Z,0
2016-11-21T00:14:18.318Z,0
2016-11-21T00:15:18.006Z,0
2016-11-21T00:16:18.024Z,0
2016-11-21T00:17:18.355Z,0
2016-11-21T00:18:18.372Z,0
2016-11-21T00:19:18.071Z,0
2016-11-21T00:20:18.419Z,0
2016-11-21T00:21:18.736Z,0
2016-11-21T00:22:18.147Z,0
2016-11-21T00:23:18.454Z,0
2016-11-21T00:24:18.468Z,0
2016-11-21T00:25:18.805Z,0
2016-11-21T00:26:19.150Z,0
2016-11-21T00:27:18.204Z,0
2016-11-21T00:28:19.163Z,0
2016-11-21T00:29:18.239Z,0
2016-11-21T00:30:18.923Z,0
2016-11-21T00:31:18.297Z,0
2016-11-21T00:32:18.298Z,0
2016-11-21T00:33:18.957Z,0
2016-11-21T00:34:18.664Z,0
2016-11-21T00:35:18.967Z,0
2016-11-21T00:36:18.038Z,0
2016-11-21T00:37:18.696Z,0
2016-11-21T00:38:18.715Z,0
2016-11-21T00:39:18.721Z,0
2016-11-21T00:40:18.744Z,0
2016-11-21T00:41:18.456Z,0
2016-11-21T00:42:19.098Z,0
2016-11-21T00:43:18.481Z,0
2016-11-21T00:44:18.807Z,0
2016-11-21T00:45:18.842Z,0
2016-11-21T00:46:18.837Z,0
2016-11-21T00:47:19.179Z,0
2016-11-21T00:48:18.560Z,0
2016-11-21T00:49:18.263Z,0
2016-11-21T00:50:18.918Z,0
2016-11-21T00:51:18.928Z,0
2016-11-21T00:52:18.625Z,0
2016-11-21T00:53:18.959Z,0
2016-11-21T00:54:18.659Z,0
2016-11-21T00:55:19.017Z,0
2016-11-21T00:56:19.007Z,0
2016-11-21T00:57:18.710Z,0
2016-11-21T00:58:18.725Z,0
2016-11-21T00:59:19.372Z,0
2016-11-21T01:00:19.078Z,0
2016-11-21T01:01:18.775Z,0
2016-11-21T01:02:19.110Z,0
2016-11-21T01:03:19.163Z,0
2016-11-21T01:04:19.462Z,0
2016-11-21T01:05:19.478Z,0
2016-11-21T01:06:19.493Z,0
2016-11-21T01:07:19.552Z,0
2016-11-21T01:08:19.221Z,0
2016-11-21T01:09:18.913Z,0
2016-11-21T01:10:19.245Z,0
2016-11-21T01:11:19.605Z,0
2016-11-21T01:12:18.973Z,0
2016-11-21T01:13:19.612Z,0
2016-11-21T01:14:18.995Z,0
2016-11-21T01:15:19.325Z,0
2016-11-21T01:16:19.030Z,0
2016-11-21T01:17:19.364Z,0
2016-11-21T01:18:18.765Z,0
2016-11-21T01:19:19.406Z,0
2016-11-21T01:20:19.096Z,0
2016-11-21T01:21:19.430Z,0
2016-11-21T01:22:19.449Z,0
2016-11-21T01:23:19.152Z,0
2016-11-21T01:24:19.167Z,0
2016-11-21T01:25:19.179Z,0
2016-11-21T01:26:19.832Z,0
2016-11-21T01:27:18.898Z,0
2016-11-21T01:28:19.233Z,0
2016-11-21T01:29:19.258Z,0
2016-11-21T01:30:19.923Z,0
2016-11-21T01:31:19.605Z,0
2016-11-21T01:32:19.617Z,0
2016-11-21T01:33:19.637Z,0
2016-11-21T01:34:19.968Z,0
2016-11-21T01:35:19.676Z,0
2016-11-21T01:36:19.364Z,0
2016-11-21T01:37:19.384Z,0
2016-11-21T01:38:19.401Z,0
2016-11-21T01:39:20.048Z,0
2016-11-21T01:40:19.747Z,0
2016-11-21T01:41:20.085Z,0
2016-11-21T01:42:19.154Z,0
2016-11-21T01:43:20.117Z,0
2016-11-21T01:44:19.840Z,0
2016-11-21T01:45:20.163Z,0
2016-11-21T01:46:19.850Z,0
2016-11-21T01:47:19.876Z,0
2016-11-21T01:48:19.910Z,0
2016-11-21T01:49:19.901Z,0
2016-11-21T01:50:19.602Z,0
2016-11-21T01:51:19.623Z,0
2016-11-21T01:52:19.635Z,0
2016-11-21T01:53:19.678Z,0
2016-11-21T01:54:19.700Z,0
2016-11-21T01:55:20.318Z,0
2016-11-21T01:56:19.415Z,0
2016-11-21T01:57:19.734Z,0
2016-11-21T01:58:20.054Z,0
2016-11-21T01:59:20.402Z,0
2016-11-21T02:00:19.772Z,0
2016-11-21T02:01:20.109Z,0
2016-11-21T02:02:19.808Z,0
2016-11-21T02:03:19.513Z,0
2016-11-21T02:04:19.847Z,0
2016-11-21T02:05:20.173Z,0
2016-11-21T02:06:20.187Z,0
2016-11-21T02:07:20.216Z,0
2016-11-21T02:08:19.907Z,0
2016-11-21T02:09:20.239Z,0
2016-11-21T02:10:34.531Z,0
2016-11-21T02:11:20.621Z,0
2016-11-21T02:12:19.662Z,0
2016-11-21T02:13:19.995Z,0
2016-11-21T02:14:20.968Z,0
2016-11-21T02:15:20.350Z,0
2016-11-21T02:16:20.683Z,0
2016-11-21T02:17:20.378Z,0
2016-11-21T02:18:20.397Z,0
2016-11-21T02:19:20.444Z,0
2016-11-21T02:20:20.113Z,0
2016-11-21T02:21:19.817Z,0
2016-11-21T02:22:20.479Z,0
2016-11-21T02:23:20.502Z,0
2016-11-21T02:24:20.501Z,0
2016-11-21T02:25:20.526Z,0
2016-11-21T02:26:20.541Z,0
2016-11-21T02:27:20.235Z,0
2016-11-21T02:28:20.567Z,0
2016-11-21T02:29:20.599Z,0
2016-11-21T02:30:20.924Z,0
2016-11-21T02:31:20.328Z,0
2016-11-21T02:32:20.367Z,0
2016-11-21T02:33:20.354Z,0
2016-11-21T02:34:20.988Z,0
2016-11-21T02:35:20.070Z,0
2016-11-21T02:36:20.398Z,0
2016-11-21T02:37:20.407Z,0
2016-11-21T02:38:20.433Z,0
2016-11-21T02:39:20.762Z,0
2016-11-21T02:40:20.776Z,0
2016-11-21T02:41:20.798Z,0
2016-11-21T02:42:20.836Z,0
2016-11-21T02:43:21.154Z,0
2016-11-21T02:44:20.844Z,0
2016-11-21T02:45:21.180Z,0
2016-11-21T02:46:21.202Z,0
2016-11-21T02:47:21.217Z,0
2016-11-21T02:48:21.237Z,0
2016-11-21T02:49:20.962Z,0
2016-11-21T02:50:20.635Z,0
2016-11-21T02:51:20.345Z,0
2016-11-21T02:52:21.305Z,0
2016-11-21T02:53:21.001Z,0
2016-11-21T02:54:20.707Z,0
2016-11-21T02:55:20.724Z,0
2016-11-21T02:56:21.085Z,0
2016-11-21T02:57:20.757Z,0
2016-11-21T02:58:20.776Z,0
2016-11-21T02:59:20.793Z,0
2016-11-21T03:00:20.494Z,0
2016-11-21T03:01:21.141Z,0
2016-11-21T03:02:21.172Z,0
2016-11-21T03:03:20.859Z,0
2016-11-21T03:04:21.194Z,0
2016-11-21T03:05:21.545Z,0
2016-11-21T03:06:21.225Z,0
2016-11-21T03:07:20.935Z,0
2016-11-21T03:08:21.259Z,0
2016-11-21T03:09:21.601Z,0
2016-11-21T03:10:20.993Z,0
2016-11-21T03:11:21.317Z,0
2016-11-21T03:12:21.331Z,0
2016-11-21T03:13:21.059Z,0
2016-11-21T03:14:20.734Z,0
2016-11-21T03:15:21.389Z,0
2016-11-21T03:16:21.444Z,0
2016-11-21T03:17:21.445Z,0
2016-11-21T03:18:21.452Z,0
2016-11-21T03:19:21.149Z,0
2016-11-21T03:20:21.797Z,0
2016-11-21T03:21:21.196Z,0
2016-11-21T03:22:20.880Z,0
2016-11-21T03:23:21.207Z,0
2016-11-21T03:24:21.570Z,0
2016-11-21T03:25:21.264Z,0
2016-11-21T03:26:21.590Z,0
2016-11-21T03:27:21.593Z,0
2016-11-21T03:28:21.298Z,0
2016-11-21T03:29:21.639Z,0
2016-11-21T03:30:21.021Z,0
2016-11-21T03:31:21.369Z,0
2016-11-21T03:32:21.398Z,0
2016-11-21T03:33:21.382Z,0
2016-11-21T03:34:22.040Z,0
2016-11-21T03:35:21.108Z,0
2016-11-21T03:36:21.433Z,0
2016-11-21T03:37:21.772Z,0
2016-11-21T03:38:21.805Z,0
2016-11-21T03:39:22.433Z,0
2016-11-21T03:40:21.826Z,0
2016-11-21T03:41:21.532Z,0
2016-11-21T03:42:21.553Z,0
2016-11-21T03:43:22.220Z,0
2016-11-21T03:44:22.204Z,0
2016-11-21T03:45:22.228Z,0
2016-11-21T03:46:21.315Z,0
2016-11-21T03:47:21.961Z,0
2016-11-21T03:48:22.281Z,0
2016-11-21T03:49:21.691Z,0
2016-11-21T03:50:22.328Z,0
2016-11-21T03:51:22.018Z,0
2016-11-21T03:52:21.721Z,0
2016-11-21T03:53:22.054Z,0
2016-11-21T03:54:21.752Z,0
2016-11-21T03:55:22.105Z,0
2016-11-21T03:56:22.105Z,0
2016-11-21T03:57:22.756Z,0
2016-11-21T03:58:21.826Z,0
2016-11-21T03:59:22.478Z,0
2016-11-21T04:00:22.179Z,0
2016-11-21T04:01:21.567Z,0
2016-11-21T04:02:22.219Z,0
2016-11-21T04:03:21.921Z,0
2016-11-21T04:04:22.247Z,0
2016-11-21T04:05:22.626Z,0
2016-11-21T04:06:21.983Z,0
2016-11-21T04:07:22.321Z,0
2016-11-21T04:08:22.637Z,0
2016-11-21T04:09:22.349Z,0
2016-11-21T04:10:22.045Z,0
2016-11-21T04:11:21.743Z,0
2016-11-21T04:12:22.075Z,0
2016-11-21T04:13:22.408Z,0
2016-11-21T04:14:22.128Z,0
2016-11-21T04:15:22.446Z,0
2016-11-21T04:16:23.120Z,0
2016-11-21T04:17:22.797Z,0
2016-11-21T04:18:22.178Z,0
2016-11-21T04:19:22.202Z,0
2016-11-21T04:20:21.906Z,0
2016-11-21T04:21:22.548Z,0
2016-11-21T04:22:22.254Z,0
2016-11-21T04:23:22.574Z,0
2016-11-21T04:24:22.605Z,0
2016-11-21T04:25:22.620Z,0
2016-11-21T04:26:22.955Z,0
2016-11-21T04:27:23.309Z,0
2016-11-21T04:28:22.351Z,0
2016-11-21T04:29:22.693Z,0
2016-11-21T04:30:22.706Z,0
2016-11-21T04:31:22.716Z,0
2016-11-21T04:32:22.736Z,0
2016-11-21T04:33:22.465Z,0
2016-11-21T04:34:22.456Z,0
2016-11-21T04:35:23.145Z,0
2016-11-21T04:36:22.176Z,0
2016-11-21T04:37:23.139Z,0
2016-11-21T04:38:23.478Z,0
2016-11-21T04:39:22.859Z,0
2016-11-21T04:40:23.192Z,0
2016-11-21T04:41:22.588Z,0
2016-11-21T04:42:22.595Z,0
2016-11-21T04:43:22.615Z,0
2016-11-21T04:44:22.628Z,0
2016-11-21T04:45:22.333Z,0
2016-11-21T04:46:22.665Z,0
2016-11-21T04:47:23.319Z,0
2016-11-21T04:48:22.693Z,0
2016-11-21T04:49:23.040Z,0
2016-11-21T04:50:23.366Z,0
2016-11-21T04:51:23.068Z,0
2016-11-21T04:52:23.092Z,0
2016-11-21T04:53:23.101Z,0
2016-11-21T04:54:22.805Z,0
2016-11-21T04:55:23.459Z,0
2016-11-21T04:56:23.162Z,0
2016-11-21T04:57:23.171Z,0
2016-11-21T04:58:23.521Z,0
2016-11-21T04:59:22.888Z,0
2016-11-21T05:00:22.933Z,0
2016-11-21T05:01:23.595Z,0
2016-11-21T05:02:23.569Z,0
2016-11-21T05:03:23.595Z,0
2016-11-21T05:04:22.973Z,0
2016-11-21T05:05:22.989Z,0
2016-11-21T05:06:23.642Z,0
2016-11-21T05:07:23.021Z,0
2016-11-21T05:08:23.049Z,0
2016-11-21T05:09:23.721Z,0
2016-11-21T05:10:23.735Z,0
2016-11-21T05:11:23.407Z,0
2016-11-21T05:12:23.432Z,0
2016-11-21T05:13:23.441Z,0
2016-11-21T05:14:23.193Z,0
2016-11-21T05:15:23.483Z,0
2016-11-21T05:16:23.498Z,0
2016-11-21T05:17:23.200Z,0
2016-11-21T05:18:23.540Z,0
2016-11-21T05:19:23.551Z,0
2016-11-21T05:20:23.561Z,0
2016-11-21T05:21:23.898Z,0
2016-11-21T05:22:23.337Z,0
2016-11-21T05:23:23.631Z,0
2016-11-21T05:24:23.641Z,0
2016-11-21T05:25:23.018Z,0
2016-11-21T05:26:23.350Z,0
2016-11-21T05:27:23.376Z,0
2016-11-21T05:28:24.013Z,0
2016-11-21T05:29:24.030Z,0
2016-11-21T05:30:24.076Z,0
2016-11-21T05:31:23.448Z,0
2016-11-21T05:32:23.658Z,0
2016-11-21T05:33:24.418Z,0
2016-11-21T05:34:23.823Z,0
2016-11-21T05:35:23.820Z,0
2016-11-21T05:36:23.537Z,0
2016-11-21T05:37:23.559Z,0
2016-11-21T05:38:23.883Z,0
2016-11-21T05:39:23.268Z,0
2016-11-21T05:40:23.923Z,0
2016-11-21T05:41:23.925Z,0
2016-11-21T05:42:23.939Z,0
2016-11-21T05:43:23.955Z,0
2016-11-21T05:44:23.974Z,0
2016-11-21T05:45:24.323Z,0
2016-11-21T05:46:24.025Z,0
2016-11-21T05:47:24.042Z,0
2016-11-21T05:48:24.683Z,0
2016-11-21T05:49:23.745Z,0
2016-11-21T05:50:24.073Z,0
2016-11-21T05:51:23.783Z,0
2016-11-21T05:52:23.796Z,0
2016-11-21T05:53:24.128Z,0
2016-11-21T05:54:24.462Z,0
2016-11-21T05:55:23.881Z,0
2016-11-21T05:56:24.186Z,0
2016-11-21T05:57:23.562Z,0
2016-11-21T05:58:24.528Z,0
2016-11-21T05:59:24.907Z,0
2016-11-21T06:00:23.931Z,0
2016-11-21T06:01:23.952Z,0
2016-11-21T06:02:24.593Z,0
2016-11-21T06:03:23.999Z,0
2016-11-21T06:04:24.317Z,0
2016-11-21T06:05:24.338Z,0
2016-11-21T06:06:24.034Z,0
2016-11-21T06:07:24.374Z,0
2016-11-21T06:08:23.759Z,0
2016-11-21T06:09:24.403Z,0
2016-11-21T06:10:24.736Z,0
2016-11-21T06:11:24.118Z,0
2016-11-21T06:12:24.148Z,0
2016-11-21T06:13:25.107Z,0
2016-11-21T06:14:24.492Z,0
2016-11-21T06:15:24.515Z,0
2016-11-21T06:16:24.551Z,0
2016-11-21T06:17:23.917Z,0
2016-11-21T06:18:25.214Z,0
2016-11-21T06:19:24.266Z,0
2016-11-21T06:20:24.292Z,0
2016-11-21T06:21:24.954Z,0
2016-11-21T06:22:24.323Z,0
2016-11-21T06:23:24.644Z,0
2016-11-21T06:24:24.974Z,0
2016-11-21T06:25:24.992Z,0
2016-11-21T06:26:24.696Z,0
2016-11-21T06:27:24.396Z,0
2016-11-21T06:28:24.099Z,0
2016-11-21T06:29:24.937Z,0
2016-11-21T06:30:24.135Z,0
2016-11-21T06:31:25.105Z,0
2016-11-21T06:32:25.119Z,0
2016-11-21T06:33:24.207Z,0
2016-11-21T06:34:24.522Z,0
2016-11-21T06:35:24.532Z,0
2016-11-21T06:36:24.865Z,0
2016-11-21T06:37:24.563Z,0
2016-11-21T06:38:25.217Z,0
2016-11-21T06:39:24.632Z,0
2016-11-21T06:40:25.279Z,0
2016-11-21T06:41:24.632Z,0
2016-11-21T06:42:25.287Z,0
2016-11-21T06:43:24.352Z,0
2016-11-21T06:44:24.999Z,0
2016-11-21T06:45:25.336Z,0
2016-11-21T06:46:25.054Z,0
2016-11-21T06:47:25.373Z,0
2016-11-21T06:48:25.392Z,0
2016-11-21T06:49:24.776Z,0
2016-11-21T06:50:25.411Z,0
2016-11-21T06:51:24.816Z,0
2016-11-21T06:52:24.828Z,0
2016-11-21T06:53:25.148Z,0
2016-11-21T06:54:25.483Z,0
2016-11-21T06:55:24.868Z,0
2016-11-21T06:56:25.213Z,0
2016-11-21T06:57:25.846Z,0
2016-11-21T06:58:25.234Z,0
2016-11-21T06:59:24.952Z,0
2016-11-21T07:00:25.267Z,0
2016-11-21T07:01:24.971Z,0
2016-11-21T07:02:25.615Z,0
2016-11-21T07:03:25.030Z,0
2016-11-21T07:04:24.730Z,0
2016-11-21T07:05:25.974Z,0
2016-11-21T07:06:24.740Z,0
2016-11-21T07:07:24.772Z,0
2016-11-21T07:08:25.716Z,0
2016-11-21T07:09:25.425Z,0
2016-11-21T07:10:25.168Z,0
2016-11-21T07:11:25.775Z,0
2016-11-21T07:12:25.214Z,0
2016-11-21T07:13:25.833Z,0
2016-11-21T07:14:25.186Z,0
2016-11-21T07:15:25.196Z,0
2016-11-21T07:16:25.533Z,0
2016-11-21T07:17:24.927Z,0
2016-11-21T07:18:26.208Z,0
2016-11-21T07:19:25.614Z,5
2016-11-21T07:20:25.287Z,5
2016-11-21T07:21:25.315Z,5
2016-11-21T07:22:25.011Z,5
2016-11-21T07:23:25.388Z,5
2016-11-21T07:24:25.354Z,5
2016-11-21T07:25:25.063Z,5
2016-11-21T07:26:25.721Z,5
2016-11-21T07:27:26.037Z,5
2016-11-21T07:28:25.444Z,5
2016-11-21T07:29:26.107Z,5
2016-11-21T07:30:26.102Z,5
2016-11-21T07:31:25.795Z,10
2016-11-21T07:32:25.493Z,10
2016-11-21T07:33:25.839Z,10
2016-11-21T07:34:25.215Z,10
2016-11-21T07:35:26.172Z,10
2016-11-21T07:36:26.218Z,10
2016-11-21T07:37:25.893Z,10
2016-11-21T07:38:25.909Z,10
2016-11-21T07:39:25.620Z,15
2016-11-21T07:40:25.633Z,15
2016-11-21T07:41:25.659Z,15
2016-11-21T07:42:26.300Z,15
2016-11-21T07:43:25.725Z,15
2016-11-21T07:44:25.704Z,15
2016-11-21T07:45:26.377Z,15
2016-11-21T07:46:26.074Z,15
2016-11-21T07:47:26.716Z,20
2016-11-21T07:48:25.784Z,20
2016-11-21T07:49:25.487Z,25
2016-11-21T07:50:25.818Z,25
2016-11-21T07:51:25.833Z,25
2016-11-21T07:52:26.488Z,25
2016-11-21T07:53:26.504Z,25
2016-11-21T07:54:25.591Z,25
2016-11-21T07:55:26.227Z,25
2016-11-21T07:56:26.256Z,25
2016-11-21T07:57:25.979Z,25
2016-11-21T07:58:25.654Z,25
2016-11-21T07:59:25.983Z,25
2016-11-21T08:00:27.133Z,25
2016-11-21T08:01:25.724Z,30
2016-11-21T08:02:26.689Z,30
2016-11-21T08:03:26.056Z,30
2016-11-21T08:04:26.080Z,30
2016-11-21T08:05:26.411Z,30
2016-11-21T08:06:25.802Z,30
2016-11-21T08:07:26.775Z,25
2016-11-21T08:08:26.175Z,25
2016-11-21T08:09:26.802Z,25
2016-11-21T08:10:26.506Z,25
2016-11-21T08:11:26.212Z,25
2016-11-21T08:12:26.229Z,25
2016-11-21T08:13:25.931Z,20
2016-11-21T08:14:27.215Z,25
2016-11-21T08:15:26.919Z,25
2016-11-21T08:16:26.935Z,25
2016-11-21T08:17:26.030Z,25
2016-11-21T08:18:26.666Z,25
2016-11-21T08:19:26.678Z,25
2016-11-21T08:20:26.695Z,20
2016-11-21T08:21:26.399Z,20
2016-11-21T08:22:26.470Z,25
2016-11-21T08:23:26.433Z,20
2016-11-21T08:24:26.458Z,25
2016-11-21T08:25:26.473Z,25
2016-11-21T08:26:26.513Z,20
2016-11-21T08:27:26.509Z,15
2016-11-21T08:28:26.851Z,15
2016-11-21T08:29:26.232Z,15
2016-11-21T08:30:26.887Z,15
2016-11-21T08:31:26.292Z,15
2016-11-21T08:32:27.238Z,15
2016-11-21T08:33:26.949Z,15
2016-11-21T08:34:26.960Z,15
2016-11-21T08:35:26.980Z,15
2016-11-21T08:36:26.705Z,15
2016-11-21T08:37:27.036Z,15
2016-11-21T08:38:27.353Z,15
2016-11-21T08:39:26.752Z,15
2016-11-21T08:40:27.075Z,20
2016-11-21T08:41:26.785Z,20
2016-11-21T08:42:26.798Z,25
2016-11-21T08:43:27.769Z,25
2016-11-21T08:44:26.837Z,30
2016-11-21T08:45:27.191Z,35
2016-11-21T08:46:27.196Z,55
2016-11-21T08:47:27.230Z,70
2016-11-21T08:48:26.610Z,105
2016-11-21T08:49:26.647Z,230
2016-11-21T08:50:27.580Z,295
2016-11-21T08:51:26.679Z,190
2016-11-21T08:52:26.690Z,100
2016-11-21T08:53:27.646Z,55
2016-11-21T08:54:27.662Z,50
2016-11-21T08:55:27.369Z,55
2016-11-21T08:56:27.119Z,50
2016-11-21T08:57:27.414Z,40
2016-11-21T08:58:27.422Z,50
2016-11-21T08:59:26.829Z,50
2016-11-21T09:00:27.469Z,40
2016-11-21T09:01:27.803Z,45
2016-11-21T09:02:27.206Z,50
2016-11-21T09:03:27.531Z,85
2016-11-21T09:04:26.913Z,85
2016-11-21T09:05:27.261Z,75
2016-11-21T09:06:27.587Z,75
2016-11-21T09:07:27.605Z,80
2016-11-21T09:08:27.624Z,90
2016-11-21T09:09:27.350Z,195
2016-11-21T09:10:27.036Z,275
2016-11-21T09:11:27.689Z,170
2016-11-21T09:12:27.393Z,105
2016-11-21T09:13:27.727Z,150
2016-11-21T09:14:28.077Z,150
2016-11-21T09:15:27.779Z,160
2016-11-21T09:16:27.477Z,165
2016-11-21T09:17:27.500Z,120
2016-11-21T09:18:27.837Z,105
2016-11-21T09:19:27.547Z,90
2016-11-21T09:20:27.611Z,95
2016-11-21T09:21:27.590Z,95
2016-11-21T09:22:27.924Z,90
2016-11-21T09:23:27.631Z,95
2016-11-21T09:24:27.668Z,100
2016-11-21T09:25:27.681Z,100
2016-11-21T09:26:28.370Z,95
2016-11-21T09:27:28.038Z,90
2016-11-21T09:28:28.056Z,90
2016-11-21T09:29:27.453Z,90
2016-11-21T09:30:27.796Z,95
2016-11-21T09:31:28.127Z,95
2016-11-21T09:32:27.515Z,100
2016-11-21T09:33:28.174Z,90
2016-11-21T09:34:27.877Z,95
2016-11-21T09:35:27.906Z,115
2016-11-21T09:36:27.634Z,145
2016-11-21T09:37:28.974Z,140
2016-11-21T09:38:27.971Z,125
2016-11-21T09:39:28.012Z,130
2016-11-21T09:40:28.025Z,120
2016-11-21T09:41:27.736Z,105
2016-11-21T09:42:28.087Z,140
2016-11-21T09:43:28.086Z,125
2016-11-21T09:44:28.432Z,70
2016-11-21T09:45:28.477Z,80
2016-11-21T09:46:27.852Z,160
2016-11-21T09:47:28.188Z,210
2016-11-21T09:48:27.898Z,135
2016-11-21T09:49:28.893Z,85
2016-11-21T09:50:28.623Z,55
2016-11-21T09:51:27.971Z,50
2016-11-21T09:52:29.257Z,45
2016-11-21T09:53:28.646Z,55
2016-11-21T09:54:28.056Z,70
2016-11-21T09:55:28.069Z,70
2016-11-21T09:56:28.424Z,55
2016-11-21T09:57:28.432Z,50
2016-11-21T09:58:28.144Z,50
2016-11-21T09:59:29.430Z,70
2016-11-21T10:00:28.505Z,70
2016-11-21T10:01:28.215Z,70
2016-11-21T10:02:28.548Z,85
2016-11-21T10:03:28.914Z,95
2016-11-21T10:04:29.234Z,80
2016-11-21T10:05:28.975Z,70
2016-11-21T10:06:29.033Z,55
2016-11-21T10:07:29.021Z,50
2016-11-21T10:08:28.703Z,40
2016-11-21T10:09:28.721Z,40
2016-11-21T10:10:29.086Z,35
2016-11-21T10:11:28.457Z,40
2016-11-21T10:12:29.112Z,45
2016-11-21T10:13:28.819Z,40
2016-11-21T10:14:28.848Z,40
2016-11-21T10:15:29.186Z,40
2016-11-21T10:16:28.896Z,35
2016-11-21T10:17:29.867Z,35
2016-11-21T10:18:28.627Z,35
2016-11-21T10:19:28.967Z,50
2016-11-21T10:20:29.622Z,60
2016-11-21T10:21:29.021Z,55
2016-11-21T10:22:29.665Z,130
2016-11-21T10:23:29.078Z,115
2016-11-21T10:24:29.095Z,60
2016-11-21T10:25:30.060Z,80
2016-11-21T10:26:29.449Z,105
2016-11-21T10:27:28.867Z,55
2016-11-21T10:28:29.183Z,35
2016-11-21T10:29:29.831Z,30
2016-11-21T10:30:29.867Z,30
2016-11-21T10:31:29.279Z,35
2016-11-21T10:32:29.305Z,60
2016-11-21T10:33:29.934Z,45
2016-11-21T10:34:29.339Z,40
2016-11-21T10:35:29.351Z,55
2016-11-21T10:36:30.006Z,45
2016-11-21T10:37:29.400Z,40
2016-11-21T10:38:29.431Z,35
2016-11-21T10:39:29.495Z,35
2016-11-21T10:40:29.151Z,35
2016-11-21T10:41:29.811Z,35
2016-11-21T10:42:29.834Z,35
2016-11-21T10:43:29.544Z,35
2016-11-21T10:44:29.566Z,30
2016-11-21T10:45:30.226Z,30
2016-11-21T10:46:29.304Z,30
2016-11-21T10:47:29.327Z,40
2016-11-21T10:48:29.667Z,45
2016-11-21T10:49:30.018Z,55
2016-11-21T10:50:30.655Z,50
2016-11-21T10:51:30.052Z,45
2016-11-21T10:52:30.392Z,45
2016-11-21T10:53:30.113Z,45
2016-11-21T10:54:29.489Z,45
2016-11-21T10:55:29.850Z,40
2016-11-21T10:56:29.864Z,45
2016-11-21T10:57:30.515Z,65
2016-11-21T10:58:30.534Z,70
2016-11-21T10:59:29.933Z,65
2016-11-21T11:00:29.952Z,70
2016-11-21T11:01:30.613Z,70
2016-11-21T11:02:30.009Z,80
2016-11-21T11:03:29.714Z,75
2016-11-21T11:04:30.686Z,70
2016-11-21T11:05:30.123Z,65
2016-11-21T11:06:30.447Z,70
2016-11-21T11:07:31.072Z,65
2016-11-21T11:08:30.152Z,50
2016-11-21T11:09:30.595Z,40
2016-11-21T11:10:30.211Z,35
2016-11-21T11:11:31.168Z,45
2016-11-21T11:12:30.254Z,55
2016-11-21T11:13:30.591Z,65
2016-11-21T11:14:30.939Z,65
2016-11-21T11:15:31.303Z,65
2016-11-21T11:16:31.293Z,60
2016-11-21T11:17:30.694Z,60
2016-11-21T11:18:30.754Z,55
2016-11-21T11:19:30.130Z,55
2016-11-21T11:20:30.454Z,60
2016-11-21T11:21:30.797Z,65
2016-11-21T11:22:30.818Z,65
2016-11-21T11:23:30.535Z,65
2016-11-21T11:24:30.239Z,60
2016-11-21T11:25:30.893Z,60
2016-11-21T11:26:30.915Z,55
2016-11-21T11:27:30.948Z,60
2016-11-21T11:28:31.315Z,55
2016-11-21T11:29:30.993Z,55
2016-11-21T11:30:30.391Z,60
2016-11-21T11:31:31.364Z,55
2016-11-21T11:32:31.391Z,55
2016-11-21T11:33:30.785Z,55
2016-11-21T11:34:30.512Z,60
2016-11-21T11:35:31.466Z,65
2016-11-21T11:36:31.182Z,65
2016-11-21T11:37:30.898Z,65
2016-11-21T11:38:31.262Z,65
2016-11-21T11:39:30.942Z,65
2016-11-21T11:40:30.967Z,65
2016-11-21T11:41:31.311Z,60
2016-11-21T11:42:30.705Z,65
2016-11-21T11:43:31.365Z,65
2016-11-21T11:44:31.385Z,65
2016-11-21T11:45:31.115Z,60
2016-11-21T11:46:32.067Z,60
2016-11-21T11:47:31.800Z,60
2016-11-21T11:48:31.179Z,60
2016-11-21T11:49:31.240Z,60
2016-11-21T11:50:31.234Z,55
2016-11-21T11:51:31.256Z,55
2016-11-21T11:52:31.914Z,55
2016-11-21T11:53:32.260Z,50
2016-11-21T11:54:31.333Z,50
2016-11-21T11:55:31.687Z,50
2016-11-21T11:56:31.717Z,50
2016-11-21T11:57:31.733Z,50
2016-11-21T11:58:31.842Z,50
2016-11-21T11:59:32.116Z,50
2016-11-21T12:00:31.822Z,50
2016-11-21T12:01:31.842Z,50
2016-11-21T12:02:32.183Z,55
2016-11-21T12:03:31.913Z,50
2016-11-21T12:04:31.937Z,50
2016-11-21T12:05:31.640Z,50
2016-11-21T12:06:32.017Z,50
2016-11-21T12:07:32.035Z,50
2016-11-21T12:08:31.712Z,50
2016-11-21T12:09:32.059Z,50
2016-11-21T12:10:32.402Z,45
2016-11-21T12:11:31.491Z,45
2016-11-21T12:12:31.841Z,45
2016-11-21T12:13:32.168Z,45
2016-11-21T12:14:31.571Z,45
2016-11-21T12:15:31.911Z,45
2016-11-21T12:16:32.564Z,45
2016-11-21T12:17:32.279Z,40
2016-11-21T12:18:32.538Z,45
2016-11-21T12:19:32.031Z,45
2016-11-21T12:20:32.055Z,45
2016-11-21T12:21:32.085Z,45
2016-11-21T12:22:32.419Z,40
2016-11-21T12:23:32.440Z,40
2016-11-21T12:24:32.476Z,40
2016-11-21T12:25:32.815Z,35
2016-11-21T12:26:32.847Z,30
2016-11-21T12:27:32.571Z,30
2016-11-21T12:28:32.580Z,30
2016-11-21T12:29:32.611Z,35
2016-11-21T12:30:32.964Z,35
2016-11-21T12:31:32.350Z,40
2016-11-21T12:32:32.064Z,35
2016-11-21T12:33:32.102Z,35
2016-11-21T12:34:33.063Z,35
2016-11-21T12:35:32.465Z,35
2016-11-21T12:36:32.817Z,35
2016-11-21T12:37:32.521Z,40
2016-11-21T12:38:32.546Z,40
2016-11-21T12:39:32.572Z,35
2016-11-21T12:40:32.285Z,35
2016-11-21T12:41:32.636Z,35
2016-11-21T12:42:32.984Z,35
2016-11-21T12:43:32.686Z,35
2016-11-21T12:44:32.709Z,30
2016-11-21T12:45:32.742Z,30
2016-11-21T12:46:33.086Z,30
2016-11-21T12:47:33.113Z,35
2016-11-21T12:48:32.842Z,35
2016-11-21T12:49:32.841Z,30
2016-11-21T12:50:33.195Z,35
2016-11-21T12:51:32.591Z,35
2016-11-21T12:52:33.558Z,35
2016-11-21T12:53:33.591Z,35
2016-11-21T12:54:33.617Z,35
2016-11-21T12:55:33.334Z,35
2016-11-21T12:56:33.357Z,30
2016-11-21T12:57:33.391Z,35
2016-11-21T12:58:33.732Z,35
2016-11-21T12:59:33.164Z,30
2016-11-21T13:00:33.468Z,25
2016-11-21T13:01:33.499Z,25
2016-11-21T13:02:32.990Z,25
2016-11-21T13:03:33.241Z,25
2016-11-21T13:04:32.959Z,15
2016-11-21T13:05:33.295Z,15
2016-11-21T13:06:33.632Z,15
2016-11-21T13:07:33.029Z,15
2016-11-21T13:08:34.005Z,15
2016-11-21T13:09:33.408Z,15
2016-11-21T13:10:34.064Z,15
2016-11-21T13:11:33.491Z,15
2016-11-21T13:12:34.141Z,10
2016-11-21T13:13:33.520Z,10
2016-11-21T13:14:34.165Z,10
2016-11-21T13:15:34.196Z,10
2016-11-21T13:16:33.602Z,10
2016-11-21T13:17:33.626Z,10
2016-11-21T13:18:33.966Z,10
2016-11-21T13:19:33.681Z,10
2016-11-21T13:20:34.021Z,10
2016-11-21T13:21:33.730Z,10
2016-11-21T13:22:34.389Z,10
2016-11-21T13:23:34.101Z,10
2016-11-21T13:24:34.014Z,10
2016-11-21T13:25:33.840Z,10
2016-11-21T13:26:33.863Z,10
2016-11-21T13:27:34.208Z,10
2016-11-21T13:28:34.236Z,10
2016-11-21T13:29:34.264Z,10
2016-11-21T13:30:33.700Z,10
2016-11-21T13:31:34.315Z,10
2016-11-21T13:32:34.341Z,10
2016-11-21T13:33:34.369Z,10
2016-11-21T13:34:34.087Z,10
2016-11-21T13:35:34.739Z,10
2016-11-21T13:36:33.848Z,15
2016-11-21T13:37:34.497Z,10
2016-11-21T13:38:34.509Z,10
2016-11-21T13:39:34.836Z,20
2016-11-21T13:40:34.871Z,25
2016-11-21T13:41:34.262Z,30
2016-11-21T13:42:34.297Z,25
2016-11-21T13:43:34.313Z,25
2016-11-21T13:44:34.700Z,25
2016-11-21T13:45:34.691Z,20
2016-11-21T13:46:34.392Z,20
2016-11-21T13:47:34.421Z,15
2016-11-21T13:48:34.445Z,20
2016-11-21T13:49:34.470Z,15
2016-11-21T13:50:34.814Z,15
2016-11-21T13:51:34.523Z,15
2016-11-21T13:52:34.868Z,15
2016-11-21T13:53:35.204Z,15
2016-11-21T13:54:35.231Z,10
2016-11-21T13:55:35.262Z,10
2016-11-21T13:56:34.751Z,10
2016-11-21T13:57:34.881Z,10
2016-11-21T13:58:35.350Z,10
2016-11-21T13:59:34.729Z,10
2016-11-21T14:00:35.077Z,10
2016-11-21T14:01:34.810Z,10
2016-11-21T14:02:34.828Z,10
2016-11-21T14:03:34.530Z,10
2016-11-21T14:04:35.177Z,10
2016-11-21T14:05:35.206Z,10
2016-11-21T14:06:34.914Z,10
2016-11-21T14:07:35.257Z,10
2016-11-21T14:08:35.291Z,10
2016-11-21T14:09:34.988Z,10
2016-11-21T14:10:35.964Z,10
2016-11-21T14:11:35.672Z,5
2016-11-21T14:12:35.092Z,5
2016-11-21T14:13:35.725Z,5
2016-11-21T14:14:35.449Z,5
2016-11-21T14:15:35.154Z,5
2016-11-21T14:16:35.226Z,5
2016-11-21T14:17:36.143Z,5
2016-11-21T14:18:35.873Z,5
2016-11-21T14:19:35.294Z,5
2016-11-21T14:20:35.308Z,5
2016-11-21T14:21:35.297Z,5
2016-11-21T14:22:35.979Z,5
2016-11-21T14:23:35.667Z,5
2016-11-21T14:24:35.080Z,5
2016-11-21T14:25:35.429Z,5
2016-11-21T14:26:36.299Z,5
2016-11-21T14:27:36.084Z,5
2016-11-21T14:28:35.788Z,5
2016-11-21T14:29:36.158Z,5
2016-11-21T14:30:35.527Z,5
2016-11-21T14:31:35.902Z,5